sensor_id;sensor_type;location;lat;lon;timestamp;P1;durP1;ratioP1;P2;durP2;ratioP2
12660;SDS011;39039;51.802;5.710;2022-08-01T00:02:12;11.65;;;6.30;;
12660;SDS011;39039;51.802;5.710;2022-08-01T00:04:39;12.32;;;5.72;;
12660;SDS011;39039;51.802;5.710;2022-08-01T00:07:06;12.50;;;6.10;;
12660;SDS011;39039;51.802;5.710;2022-08-01T00:09:33;8.85;;;5.32;;
12660;SDS011;39039;51.802;5.710;2022-08-01T00:12:00;11.82;;;5.50;;
12660;SDS011;39039;51.802;5.710;2022-08-01T00:14:30;12.43;;;5.78;;
12660;SDS011;39039;51.802;5.710;2022-08-01T00:16:57;12.32;;;5.53;;
12660;SDS011;39039;51.802;5.710;2022-08-01T00:19:25;11.13;;;5.38;;
12660;SDS011;39039;51.802;5.710;2022-08-01T00:21:52;9.52;;;5.82;;
12660;SDS011;39039;51.802;5.710;2022-08-01T00:24:19;11.10;;;5.72;;
12660;SDS011;39039;51.802;5.710;2022-08-01T00:26:46;10.57;;;5.35;;
12660;SDS011;39039;51.802;5.710;2022-08-01T00:29:13;8.80;;;5.53;;
12660;SDS011;39039;51.802;5.710;2022-08-01T00:31:40;13.10;;;6.15;;
12660;SDS011;39039;51.802;5.710;2022-08-01T00:34:08;11.15;;;5.65;;
12660;SDS011;39039;51.802;5.710;2022-08-01T00:36:36;11.57;;;5.65;;
12660;SDS011;39039;51.802;5.710;2022-08-01T00:39:03;12.07;;;5.53;;
12660;SDS011;39039;51.802;5.710;2022-08-01T00:41:30;11.95;;;5.53;;
12660;SDS011;39039;51.802;5.710;2022-08-01T00:43:57;10.43;;;5.63;;
12660;SDS011;39039;51.802;5.710;2022-08-01T00:46:24;12.50;;;6.35;;
12660;SDS011;39039;51.802;5.710;2022-08-01T00:48:51;11.77;;;6.15;;
12660;SDS011;39039;51.802;5.710;2022-08-01T00:51:19;12.50;;;6.22;;
12660;SDS011;39039;51.802;5.710;2022-08-01T00:53:48;11.80;;;6.55;;
12660;SDS011;39039;51.802;5.710;2022-08-01T00:56:15;15.32;;;7.00;;
12660;SDS011;39039;51.802;5.710;2022-08-01T00:58:43;12.40;;;6.57;;
12660;SDS011;39039;51.802;5.710;2022-08-01T01:01:10;12.48;;;6.72;;
12660;SDS011;39039;51.802;5.710;2022-08-01T01:03:37;9.32;;;6.28;;
12660;SDS011;39039;51.802;5.710;2022-08-01T01:06:06;12.25;;;5.72;;
12660;SDS011;39039;51.802;5.710;2022-08-01T01:08:38;10.60;;;5.63;;
12660;SDS011;39039;51.802;5.710;2022-08-01T01:11:10;12.25;;;5.63;;
12660;SDS011;39039;51.802;5.710;2022-08-01T01:13:41;11.40;;;6.45;;
12660;SDS011;39039;51.802;5.710;2022-08-01T01:16:10;13.95;;;7.57;;
12660;SDS011;39039;51.802;5.710;2022-08-01T01:18:39;14.18;;;6.78;;
12660;SDS011;39039;51.802;5.710;2022-08-01T01:21:11;12.85;;;6.43;;
12660;SDS011;39039;51.802;5.710;2022-08-01T01:23:46;8.63;;;5.45;;
12660;SDS011;39039;51.802;5.710;2022-08-01T01:26:23;11.38;;;6.32;;
12660;SDS011;39039;51.802;5.710;2022-08-01T01:29:02;11.48;;;6.28;;
12660;SDS011;39039;51.802;5.710;2022-08-01T01:31:31;11.80;;;6.30;;
12660;SDS011;39039;51.802;5.710;2022-08-01T01:33:59;12.57;;;6.47;;
12660;SDS011;39039;51.802;5.710;2022-08-01T01:36:28;12.60;;;5.70;;
12660;SDS011;39039;51.802;5.710;2022-08-01T01:38:55;11.68;;;5.63;;
12660;SDS011;39039;51.802;5.710;2022-08-01T01:41:23;10.88;;;5.78;;
12660;SDS011;39039;51.802;5.710;2022-08-01T01:43:50;11.52;;;5.65;;
12660;SDS011;39039;51.802;5.710;2022-08-01T01:46:22;10.68;;;5.78;;
12660;SDS011;39039;51.802;5.710;2022-08-01T01:48:51;12.48;;;6.40;;
12660;SDS011;39039;51.802;5.710;2022-08-01T01:51:20;10.70;;;5.63;;
12660;SDS011;39039;51.802;5.710;2022-08-01T01:53:47;11.02;;;6.07;;
12660;SDS011;39039;51.802;5.710;2022-08-01T01:56:15;9.23;;;5.43;;
12660;SDS011;39039;51.802;5.710;2022-08-01T01:58:43;10.48;;;5.90;;
12660;SDS011;39039;51.802;5.710;2022-08-01T02:01:10;11.55;;;5.95;;
12660;SDS011;39039;51.802;5.710;2022-08-01T02:03:39;10.85;;;6.10;;
12660;SDS011;39039;51.802;5.710;2022-08-01T02:06:07;12.52;;;5.50;;
12660;SDS011;39039;51.802;5.710;2022-08-01T02:08:34;10.25;;;5.70;;
12660;SDS011;39039;51.802;5.710;2022-08-01T02:11:01;12.10;;;5.80;;
12660;SDS011;39039;51.802;5.710;2022-08-01T02:13:46;11.77;;;6.30;;
12660;SDS011;39039;51.802;5.710;2022-08-01T02:16:13;14.13;;;6.75;;
12660;SDS011;39039;51.802;5.710;2022-08-01T02:18:43;13.35;;;6.25;;
12660;SDS011;39039;51.802;5.710;2022-08-01T02:21:10;13.90;;;6.53;;
12660;SDS011;39039;51.802;5.710;2022-08-01T02:23:39;19.50;;;6.80;;
12660;SDS011;39039;51.802;5.710;2022-08-01T02:26:07;14.68;;;7.88;;
12660;SDS011;39039;51.802;5.710;2022-08-01T02:28:36;13.32;;;6.88;;
12660;SDS011;39039;51.802;5.710;2022-08-01T02:31:06;14.23;;;7.28;;
12660;SDS011;39039;51.802;5.710;2022-08-01T02:33:36;13.70;;;6.55;;
12660;SDS011;39039;51.802;5.710;2022-08-01T02:36:06;17.85;;;6.93;;
12660;SDS011;39039;51.802;5.710;2022-08-01T02:38:35;13.57;;;6.82;;
12660;SDS011;39039;51.802;5.710;2022-08-01T02:41:03;14.68;;;6.93;;
12660;SDS011;39039;51.802;5.710;2022-08-01T02:43:33;11.02;;;6.10;;
12660;SDS011;39039;51.802;5.710;2022-08-01T02:46:01;12.85;;;6.53;;
12660;SDS011;39039;51.802;5.710;2022-08-01T02:48:29;10.73;;;6.05;;
12660;SDS011;39039;51.802;5.710;2022-08-01T02:50:58;14.60;;;7.18;;
12660;SDS011;39039;51.802;5.710;2022-08-01T02:53:28;15.60;;;7.50;;
12660;SDS011;39039;51.802;5.710;2022-08-01T02:55:56;14.98;;;7.57;;
12660;SDS011;39039;51.802;5.710;2022-08-01T02:58:25;14.25;;;7.15;;
12660;SDS011;39039;51.802;5.710;2022-08-01T03:00:52;16.17;;;7.50;;
12660;SDS011;39039;51.802;5.710;2022-08-01T03:03:20;16.05;;;7.75;;
12660;SDS011;39039;51.802;5.710;2022-08-01T03:05:48;12.80;;;6.57;;
12660;SDS011;39039;51.802;5.710;2022-08-01T03:08:15;14.90;;;7.18;;
12660;SDS011;39039;51.802;5.710;2022-08-01T03:10:44;13.15;;;6.60;;
12660;SDS011;39039;51.802;5.710;2022-08-01T03:13:13;15.70;;;7.60;;
12660;SDS011;39039;51.802;5.710;2022-08-01T03:15:40;12.70;;;6.95;;
12660;SDS011;39039;51.802;5.710;2022-08-01T03:18:09;16.05;;;7.43;;
12660;SDS011;39039;51.802;5.710;2022-08-01T03:20:36;14.60;;;7.20;;
12660;SDS011;39039;51.802;5.710;2022-08-01T03:23:04;14.68;;;7.38;;
12660;SDS011;39039;51.802;5.710;2022-08-01T03:25:32;13.13;;;7.40;;
12660;SDS011;39039;51.802;5.710;2022-08-01T03:28:03;17.67;;;6.68;;
12660;SDS011;39039;51.802;5.710;2022-08-01T03:30:32;15.45;;;6.75;;
12660;SDS011;39039;51.802;5.710;2022-08-01T03:33:00;14.43;;;6.88;;
12660;SDS011;39039;51.802;5.710;2022-08-01T03:35:28;13.38;;;7.10;;
12660;SDS011;39039;51.802;5.710;2022-08-01T03:37:56;13.63;;;7.28;;
12660;SDS011;39039;51.802;5.710;2022-08-01T03:40:25;15.20;;;6.55;;
12660;SDS011;39039;51.802;5.710;2022-08-01T03:42:54;13.95;;;6.85;;
12660;SDS011;39039;51.802;5.710;2022-08-01T03:45:25;15.73;;;6.70;;
12660;SDS011;39039;51.802;5.710;2022-08-01T03:47:54;15.23;;;6.88;;
12660;SDS011;39039;51.802;5.710;2022-08-01T03:50:22;14.20;;;7.13;;
12660;SDS011;39039;51.802;5.710;2022-08-01T03:52:51;17.20;;;8.00;;
12660;SDS011;39039;51.802;5.710;2022-08-01T03:55:20;14.52;;;6.55;;
12660;SDS011;39039;51.802;5.710;2022-08-01T03:57:48;14.00;;;6.38;;
12660;SDS011;39039;51.802;5.710;2022-08-01T04:00:15;16.30;;;6.97;;
12660;SDS011;39039;51.802;5.710;2022-08-01T04:02:45;15.23;;;6.93;;
12660;SDS011;39039;51.802;5.710;2022-08-01T04:05:13;17.50;;;7.38;;
12660;SDS011;39039;51.802;5.710;2022-08-01T04:07:44;17.00;;;6.90;;
12660;SDS011;39039;51.802;5.710;2022-08-01T04:10:11;15.15;;;6.90;;
12660;SDS011;39039;51.802;5.710;2022-08-01T04:12:39;16.90;;;6.57;;
12660;SDS011;39039;51.802;5.710;2022-08-01T04:15:06;16.73;;;6.57;;
12660;SDS011;39039;51.802;5.710;2022-08-01T04:17:33;18.15;;;6.75;;
12660;SDS011;39039;51.802;5.710;2022-08-01T04:20:02;15.73;;;6.70;;
12660;SDS011;39039;51.802;5.710;2022-08-01T04:22:29;16.23;;;6.78;;
12660;SDS011;39039;51.802;5.710;2022-08-01T04:24:57;12.75;;;6.57;;
12660;SDS011;39039;51.802;5.710;2022-08-01T04:27:25;15.13;;;6.50;;
12660;SDS011;39039;51.802;5.710;2022-08-01T04:29:54;15.07;;;6.60;;
12660;SDS011;39039;51.802;5.710;2022-08-01T04:32:23;12.27;;;5.82;;
12660;SDS011;39039;51.802;5.710;2022-08-01T04:34:52;14.77;;;6.97;;
12660;SDS011;39039;51.802;5.710;2022-08-01T04:37:22;16.27;;;6.80;;
12660;SDS011;39039;51.802;5.710;2022-08-01T04:39:50;14.05;;;6.50;;
12660;SDS011;39039;51.802;5.710;2022-08-01T04:42:19;19.73;;;6.93;;
12660;SDS011;39039;51.802;5.710;2022-08-01T04:44:46;16.10;;;7.25;;
12660;SDS011;39039;51.802;5.710;2022-08-01T04:47:13;19.15;;;7.20;;
12660;SDS011;39039;51.802;5.710;2022-08-01T04:49:40;13.98;;;6.63;;
12660;SDS011;39039;51.802;5.710;2022-08-01T04:52:08;15.85;;;7.82;;
12660;SDS011;39039;51.802;5.710;2022-08-01T04:54:36;14.05;;;6.90;;
12660;SDS011;39039;51.802;5.710;2022-08-01T04:57:03;9.10;;;5.68;;
12660;SDS011;39039;51.802;5.710;2022-08-01T04:59:31;10.25;;;5.57;;
12660;SDS011;39039;51.802;5.710;2022-08-01T05:02:07;12.48;;;6.43;;
12660;SDS011;39039;51.802;5.710;2022-08-01T05:04:34;10.13;;;5.72;;
12660;SDS011;39039;51.802;5.710;2022-08-01T05:07:02;12.88;;;6.20;;
12660;SDS011;39039;51.802;5.710;2022-08-01T05:09:29;9.82;;;6.07;;
12660;SDS011;39039;51.802;5.710;2022-08-01T05:11:58;11.77;;;6.82;;
12660;SDS011;39039;51.802;5.710;2022-08-01T05:14:26;13.27;;;7.38;;
12660;SDS011;39039;51.802;5.710;2022-08-01T05:16:56;14.10;;;7.90;;
12660;SDS011;39039;51.802;5.710;2022-08-01T05:19:23;13.02;;;6.57;;
12660;SDS011;39039;51.802;5.710;2022-08-01T05:21:51;14.00;;;7.03;;
12660;SDS011;39039;51.802;5.710;2022-08-01T05:24:18;13.93;;;7.03;;
12660;SDS011;39039;51.802;5.710;2022-08-01T05:26:44;12.88;;;6.75;;
12660;SDS011;39039;51.802;5.710;2022-08-01T05:29:13;15.10;;;7.65;;
12660;SDS011;39039;51.802;5.710;2022-08-01T05:31:40;15.40;;;7.10;;
12660;SDS011;39039;51.802;5.710;2022-08-01T05:34:07;11.75;;;7.20;;
12660;SDS011;39039;51.802;5.710;2022-08-01T05:36:34;13.70;;;7.13;;
12660;SDS011;39039;51.802;5.710;2022-08-01T05:39:02;12.02;;;6.93;;
12660;SDS011;39039;51.802;5.710;2022-08-01T05:41:29;13.75;;;6.38;;
12660;SDS011;39039;51.802;5.710;2022-08-01T05:43:56;11.93;;;6.82;;
12660;SDS011;39039;51.802;5.710;2022-08-01T05:46:25;14.38;;;7.38;;
12660;SDS011;39039;51.802;5.710;2022-08-01T05:48:52;13.30;;;7.50;;
12660;SDS011;39039;51.802;5.710;2022-08-01T05:51:19;16.05;;;7.07;;
12660;SDS011;39039;51.802;5.710;2022-08-01T05:53:46;13.68;;;7.97;;
12660;SDS011;39039;51.802;5.710;2022-08-01T05:56:13;13.68;;;8.07;;
12660;SDS011;39039;51.802;5.710;2022-08-01T05:58:40;14.38;;;7.90;;
12660;SDS011;39039;51.802;5.710;2022-08-01T06:01:07;13.65;;;7.65;;
12660;SDS011;39039;51.802;5.710;2022-08-01T06:03:35;13.75;;;7.53;;
12660;SDS011;39039;51.802;5.710;2022-08-01T06:06:03;13.00;;;7.32;;
12660;SDS011;39039;51.802;5.710;2022-08-01T06:08:30;15.45;;;8.35;;
12660;SDS011;39039;51.802;5.710;2022-08-01T06:10:57;13.98;;;8.02;;
12660;SDS011;39039;51.802;5.710;2022-08-01T06:13:25;15.00;;;7.53;;
12660;SDS011;39039;51.802;5.710;2022-08-01T06:15:52;12.65;;;6.93;;
12660;SDS011;39039;51.802;5.710;2022-08-01T06:18:19;12.45;;;7.25;;
12660;SDS011;39039;51.802;5.710;2022-08-01T06:20:47;14.57;;;8.05;;
12660;SDS011;39039;51.802;5.710;2022-08-01T06:23:14;11.82;;;7.10;;
12660;SDS011;39039;51.802;5.710;2022-08-01T06:25:42;10.90;;;6.28;;
12660;SDS011;39039;51.802;5.710;2022-08-01T06:28:09;11.60;;;6.57;;
12660;SDS011;39039;51.802;5.710;2022-08-01T06:30:36;9.77;;;6.00;;
12660;SDS011;39039;51.802;5.710;2022-08-01T06:33:03;8.45;;;5.38;;
12660;SDS011;39039;51.802;5.710;2022-08-01T06:35:30;8.95;;;4.90;;
12660;SDS011;39039;51.802;5.710;2022-08-01T06:37:58;9.45;;;5.65;;
12660;SDS011;39039;51.802;5.710;2022-08-01T06:40:25;8.02;;;4.90;;
12660;SDS011;39039;51.802;5.710;2022-08-01T06:42:52;8.00;;;4.45;;
12660;SDS011;39039;51.802;5.710;2022-08-01T06:45:20;7.82;;;4.50;;
12660;SDS011;39039;51.802;5.710;2022-08-01T06:47:49;7.95;;;4.40;;
12660;SDS011;39039;51.802;5.710;2022-08-01T06:50:16;6.72;;;3.80;;
12660;SDS011;39039;51.802;5.710;2022-08-01T06:52:43;5.90;;;3.95;;
12660;SDS011;39039;51.802;5.710;2022-08-01T06:55:12;6.93;;;4.07;;
12660;SDS011;39039;51.802;5.710;2022-08-01T06:57:45;5.70;;;3.55;;
12660;SDS011;39039;51.802;5.710;2022-08-01T07:00:12;6.50;;;4.18;;
12660;SDS011;39039;51.802;5.710;2022-08-01T07:02:41;5.38;;;3.95;;
12660;SDS011;39039;51.802;5.710;2022-08-01T07:05:08;6.63;;;3.92;;
12660;SDS011;39039;51.802;5.710;2022-08-01T07:07:35;5.97;;;3.25;;
12660;SDS011;39039;51.802;5.710;2022-08-01T07:10:02;4.70;;;2.60;;
12660;SDS011;39039;51.802;5.710;2022-08-01T07:12:31;3.35;;;2.10;;
12660;SDS011;39039;51.802;5.710;2022-08-01T07:14:58;2.95;;;1.73;;
12660;SDS011;39039;51.802;5.710;2022-08-01T07:17:25;3.20;;;1.30;;
12660;SDS011;39039;51.802;5.710;2022-08-01T07:19:52;2.15;;;1.27;;
12660;SDS011;39039;51.802;5.710;2022-08-01T07:22:19;2.35;;;1.38;;
12660;SDS011;39039;51.802;5.710;2022-08-01T07:24:46;1.88;;;1.20;;
12660;SDS011;39039;51.802;5.710;2022-08-01T07:27:13;1.55;;;0.88;;
12660;SDS011;39039;51.802;5.710;2022-08-01T07:29:42;1.80;;;1.20;;
12660;SDS011;39039;51.802;5.710;2022-08-01T07:32:09;1.23;;;0.80;;
12660;SDS011;39039;51.802;5.710;2022-08-01T07:34:36;1.00;;;0.70;;
12660;SDS011;39039;51.802;5.710;2022-08-01T07:37:03;2.40;;;0.73;;
12660;SDS011;39039;51.802;5.710;2022-08-01T07:39:30;1.30;;;0.60;;
12660;SDS011;39039;51.802;5.710;2022-08-01T07:41:57;1.35;;;0.60;;
12660;SDS011;39039;51.802;5.710;2022-08-01T07:44:24;1.45;;;0.80;;
12660;SDS011;39039;51.802;5.710;2022-08-01T07:46:53;1.05;;;0.70;;
12660;SDS011;39039;51.802;5.710;2022-08-01T07:49:19;1.40;;;0.60;;
12660;SDS011;39039;51.802;5.710;2022-08-01T07:51:47;0.57;;;0.50;;
12660;SDS011;39039;51.802;5.710;2022-08-01T07:54:14;0.77;;;0.60;;
12660;SDS011;39039;51.802;5.710;2022-08-01T07:56:41;3.00;;;0.60;;
12660;SDS011;39039;51.802;5.710;2022-08-01T07:59:08;1.73;;;0.95;;
12660;SDS011;39039;51.802;5.710;2022-08-01T08:01:35;1.08;;;0.77;;
12660;SDS011;39039;51.802;5.710;2022-08-01T08:04:03;1.45;;;0.80;;
12660;SDS011;39039;51.802;5.710;2022-08-01T08:06:30;0.60;;;0.60;;
12660;SDS011;39039;51.802;5.710;2022-08-01T08:08:57;0.70;;;0.60;;
12660;SDS011;39039;51.802;5.710;2022-08-01T08:11:25;1.20;;;0.73;;
12660;SDS011;39039;51.802;5.710;2022-08-01T08:13:52;0.95;;;0.60;;
12660;SDS011;39039;51.802;5.710;2022-08-01T08:16:19;1.33;;;0.63;;
12660;SDS011;39039;51.802;5.710;2022-08-01T08:18:46;0.80;;;0.70;;
12660;SDS011;39039;51.802;5.710;2022-08-01T08:21:15;1.35;;;0.80;;
12660;SDS011;39039;51.802;5.710;2022-08-01T08:23:42;1.73;;;0.57;;
12660;SDS011;39039;51.802;5.710;2022-08-01T08:26:27;0.70;;;0.50;;
12660;SDS011;39039;51.802;5.710;2022-08-01T08:28:54;0.85;;;0.50;;
12660;SDS011;39039;51.802;5.710;2022-08-01T08:31:21;1.85;;;0.60;;
12660;SDS011;39039;51.802;5.710;2022-08-01T08:33:48;0.70;;;0.63;;
12660;SDS011;39039;51.802;5.710;2022-08-01T08:36:16;2.55;;;0.80;;
12660;SDS011;39039;51.802;5.710;2022-08-01T08:38:43;1.20;;;0.68;;
12660;SDS011;39039;51.802;5.710;2022-08-01T08:41:10;2.55;;;0.80;;
12660;SDS011;39039;51.802;5.710;2022-08-01T08:43:38;1.58;;;0.60;;
12660;SDS011;39039;51.802;5.710;2022-08-01T08:46:05;2.08;;;0.60;;
12660;SDS011;39039;51.802;5.710;2022-08-01T08:48:34;1.15;;;0.60;;
12660;SDS011;39039;51.802;5.710;2022-08-01T08:51:01;1.35;;;0.50;;
12660;SDS011;39039;51.802;5.710;2022-08-01T08:53:30;1.42;;;0.50;;
12660;SDS011;39039;51.802;5.710;2022-08-01T08:55:58;1.00;;;0.50;;
12660;SDS011;39039;51.802;5.710;2022-08-01T08:58:26;1.08;;;0.57;;
12660;SDS011;39039;51.802;5.710;2022-08-01T09:00:53;1.52;;;0.70;;
12660;SDS011;39039;51.802;5.710;2022-08-01T09:03:20;1.70;;;0.60;;
12660;SDS011;39039;51.802;5.710;2022-08-01T09:05:47;1.05;;;0.60;;
12660;SDS011;39039;51.802;5.710;2022-08-01T09:08:14;2.13;;;1.00;;
12660;SDS011;39039;51.802;5.710;2022-08-01T09:10:43;1.27;;;0.60;;
12660;SDS011;39039;51.802;5.710;2022-08-01T09:13:10;0.95;;;0.60;;
12660;SDS011;39039;51.802;5.710;2022-08-01T09:15:43;1.60;;;0.60;;
12660;SDS011;39039;51.802;5.710;2022-08-01T09:18:25;0.77;;;0.60;;
12660;SDS011;39039;51.802;5.710;2022-08-01T09:21:07;1.02;;;0.65;;
12660;SDS011;39039;51.802;5.710;2022-08-01T09:23:34;0.90;;;0.60;;
12660;SDS011;39039;51.802;5.710;2022-08-01T09:26:05;0.82;;;0.52;;
12660;SDS011;39039;51.802;5.710;2022-08-01T09:28:33;0.40;;;0.40;;
12660;SDS011;39039;51.802;5.710;2022-08-01T09:31:05;1.02;;;0.45;;
12660;SDS011;39039;51.802;5.710;2022-08-01T09:33:45;1.00;;;0.75;;
12660;SDS011;39039;51.802;5.710;2022-08-01T09:36:12;1.77;;;0.70;;
12660;SDS011;39039;51.802;5.710;2022-08-01T09:38:39;2.22;;;0.90;;
12660;SDS011;39039;51.802;5.710;2022-08-01T09:41:08;1.63;;;0.70;;
12660;SDS011;39039;51.802;5.710;2022-08-01T09:43:36;1.55;;;0.70;;
12660;SDS011;39039;51.802;5.710;2022-08-01T09:46:04;0.90;;;0.70;;
12660;SDS011;39039;51.802;5.710;2022-08-01T09:48:31;1.10;;;0.73;;
12660;SDS011;39039;51.802;5.710;2022-08-01T09:50:59;1.27;;;0.85;;
12660;SDS011;39039;51.802;5.710;2022-08-01T09:53:26;1.50;;;1.00;;
12660;SDS011;39039;51.802;5.710;2022-08-01T09:55:53;0.68;;;0.52;;
12660;SDS011;39039;51.802;5.710;2022-08-01T09:58:21;2.35;;;0.95;;
12660;SDS011;39039;51.802;5.710;2022-08-01T10:00:57;0.93;;;0.60;;
12660;SDS011;39039;51.802;5.710;2022-08-01T10:03:25;0.47;;;0.40;;
12660;SDS011;39039;51.802;5.710;2022-08-01T10:05:54;1.70;;;0.73;;
12660;SDS011;39039;51.802;5.710;2022-08-01T10:08:22;2.33;;;0.75;;
12660;SDS011;39039;51.802;5.710;2022-08-01T10:11:05;1.48;;;0.68;;
12660;SDS011;39039;51.802;5.710;2022-08-01T10:13:34;1.10;;;0.65;;
12660;SDS011;39039;51.802;5.710;2022-08-01T10:16:02;0.57;;;0.40;;
12660;SDS011;39039;51.802;5.710;2022-08-01T10:18:30;2.05;;;0.50;;
12660;SDS011;39039;51.802;5.710;2022-08-01T10:20:58;0.98;;;0.80;;
12660;SDS011;39039;51.802;5.710;2022-08-01T10:23:25;1.38;;;0.70;;
12660;SDS011;39039;51.802;5.710;2022-08-01T10:25:53;1.95;;;0.60;;
12660;SDS011;39039;51.802;5.710;2022-08-01T10:28:21;1.38;;;0.70;;
12660;SDS011;39039;51.802;5.710;2022-08-01T10:30:52;1.10;;;0.68;;
12660;SDS011;39039;51.802;5.710;2022-08-01T10:33:21;1.35;;;0.88;;
12660;SDS011;39039;51.802;5.710;2022-08-01T10:35:48;3.67;;;1.10;;
12660;SDS011;39039;51.802;5.710;2022-08-01T10:38:15;2.25;;;0.80;;
12660;SDS011;39039;51.802;5.710;2022-08-01T10:40:42;3.53;;;0.82;;
12660;SDS011;39039;51.802;5.710;2022-08-01T10:43:10;0.95;;;0.57;;
12660;SDS011;39039;51.802;5.710;2022-08-01T10:45:37;1.67;;;0.80;;
12660;SDS011;39039;51.802;5.710;2022-08-01T10:48:09;1.63;;;0.93;;
12660;SDS011;39039;51.802;5.710;2022-08-01T10:50:38;0.88;;;0.80;;
12660;SDS011;39039;51.802;5.710;2022-08-01T10:53:08;1.50;;;1.00;;
12660;SDS011;39039;51.802;5.710;2022-08-01T10:55:50;2.35;;;1.30;;
12660;SDS011;39039;51.802;5.710;2022-08-01T10:58:21;2.45;;;1.25;;
12660;SDS011;39039;51.802;5.710;2022-08-01T11:00:48;3.45;;;1.20;;
12660;SDS011;39039;51.802;5.710;2022-08-01T11:03:16;3.75;;;1.23;;
12660;SDS011;39039;51.802;5.710;2022-08-01T11:05:58;3.63;;;1.60;;
12660;SDS011;39039;51.802;5.710;2022-08-01T11:08:25;4.05;;;1.40;;
12660;SDS011;39039;51.802;5.710;2022-08-01T11:10:59;2.55;;;1.42;;
12660;SDS011;39039;51.802;5.710;2022-08-01T11:18:52;3.28;;;1.10;;
12660;SDS011;39039;51.802;5.710;2022-08-01T11:21:19;1.40;;;0.80;;
12660;SDS011;39039;51.802;5.710;2022-08-01T11:23:49;2.35;;;1.13;;
12660;SDS011;39039;51.802;5.710;2022-08-01T11:26:17;1.98;;;0.80;;
12660;SDS011;39039;51.802;5.710;2022-08-01T11:28:44;1.75;;;0.85;;
12660;SDS011;39039;51.802;5.710;2022-08-01T11:31:25;2.25;;;0.93;;
12660;SDS011;39039;51.802;5.710;2022-08-01T11:33:54;1.25;;;0.85;;
12660;SDS011;39039;51.802;5.710;2022-08-01T11:36:21;2.53;;;0.68;;
12660;SDS011;39039;51.802;5.710;2022-08-01T11:38:49;2.83;;;1.00;;
12660;SDS011;39039;51.802;5.710;2022-08-01T11:41:17;1.92;;;0.70;;
12660;SDS011;39039;51.802;5.710;2022-08-01T11:43:54;1.85;;;0.70;;
12660;SDS011;39039;51.802;5.710;2022-08-01T11:52:07;4.38;;;1.38;;
12660;SDS011;39039;51.802;5.710;2022-08-01T11:54:35;3.30;;;1.30;;
12660;SDS011;39039;51.802;5.710;2022-08-01T11:57:03;2.95;;;1.30;;
12660;SDS011;39039;51.802;5.710;2022-08-01T11:59:35;1.75;;;1.10;;
12660;SDS011;39039;51.802;5.710;2022-08-01T12:02:02;2.78;;;1.35;;
12660;SDS011;39039;51.802;5.710;2022-08-01T12:04:43;2.50;;;1.55;;
12660;SDS011;39039;51.802;5.710;2022-08-01T12:07:12;3.97;;;1.30;;
12660;SDS011;39039;51.802;5.710;2022-08-01T12:09:40;3.28;;;1.35;;
12660;SDS011;39039;51.802;5.710;2022-08-01T12:12:08;3.30;;;1.27;;
12660;SDS011;39039;51.802;5.710;2022-08-01T12:14:35;3.22;;;1.50;;
12660;SDS011;39039;51.802;5.710;2022-08-01T12:17:02;3.00;;;1.23;;
12660;SDS011;39039;51.802;5.710;2022-08-01T12:19:29;2.13;;;1.40;;
12660;SDS011;39039;51.802;5.710;2022-08-01T12:22:06;3.38;;;1.20;;
12660;SDS011;39039;51.802;5.710;2022-08-01T12:24:35;3.35;;;1.35;;
12660;SDS011;39039;51.802;5.710;2022-08-01T12:27:03;1.92;;;1.30;;
12660;SDS011;39039;51.802;5.710;2022-08-01T12:29:31;5.85;;;1.73;;
12660;SDS011;39039;51.802;5.710;2022-08-01T12:31:58;3.60;;;1.50;;
12660;SDS011;39039;51.802;5.710;2022-08-01T12:34:25;3.55;;;1.30;;
12660;SDS011;39039;51.802;5.710;2022-08-01T12:36:54;5.13;;;1.30;;
12660;SDS011;39039;51.802;5.710;2022-08-01T12:39:21;2.42;;;1.30;;
12660;SDS011;39039;51.802;5.710;2022-08-01T12:41:49;3.85;;;1.58;;
12660;SDS011;39039;51.802;5.710;2022-08-01T12:44:16;2.90;;;1.10;;
12660;SDS011;39039;51.802;5.710;2022-08-01T12:46:43;4.22;;;1.52;;
12660;SDS011;39039;51.802;5.710;2022-08-01T12:49:10;3.83;;;1.40;;
12660;SDS011;39039;51.802;5.710;2022-08-01T12:51:38;6.35;;;1.40;;
12660;SDS011;39039;51.802;5.710;2022-08-01T12:54:05;4.30;;;1.40;;
12660;SDS011;39039;51.802;5.710;2022-08-01T12:56:35;8.43;;;1.30;;
12660;SDS011;39039;51.802;5.710;2022-08-01T13:01:46;6.32;;;2.17;;
12660;SDS011;39039;51.802;5.710;2022-08-01T13:04:12;5.65;;;1.67;;
12660;SDS011;39039;51.802;5.710;2022-08-01T13:06:40;3.08;;;1.20;;
12660;SDS011;39039;51.802;5.710;2022-08-01T13:09:07;5.25;;;1.40;;
12660;SDS011;39039;51.802;5.710;2022-08-01T13:11:35;4.00;;;0.98;;
12660;SDS011;39039;51.802;5.710;2022-08-01T13:14:02;3.00;;;1.08;;
12660;SDS011;39039;51.802;5.710;2022-08-01T13:16:29;4.55;;;1.10;;
12660;SDS011;39039;51.802;5.710;2022-08-01T13:18:58;2.97;;;0.75;;
12660;SDS011;39039;51.802;5.710;2022-08-01T13:21:26;3.53;;;1.10;;
12660;SDS011;39039;51.802;5.710;2022-08-01T13:24:00;2.65;;;0.93;;
12660;SDS011;39039;51.802;5.710;2022-08-01T13:26:40;3.63;;;0.80;;
12660;SDS011;39039;51.802;5.710;2022-08-01T13:29:08;1.88;;;0.70;;
12660;SDS011;39039;51.802;5.710;2022-08-01T13:31:36;1.05;;;0.70;;
12660;SDS011;39039;51.802;5.710;2022-08-01T13:34:05;1.58;;;0.90;;
12660;SDS011;39039;51.802;5.710;2022-08-01T13:36:32;4.65;;;1.63;;
12660;SDS011;39039;51.802;5.710;2022-08-01T13:38:59;3.40;;;1.25;;
12660;SDS011;39039;51.802;5.710;2022-08-01T13:41:44;2.38;;;1.00;;
12660;SDS011;39039;51.802;5.710;2022-08-01T13:44:12;3.38;;;0.82;;
12660;SDS011;39039;51.802;5.710;2022-08-01T13:46:39;2.65;;;1.08;;
12660;SDS011;39039;51.802;5.710;2022-08-01T13:49:08;3.05;;;1.17;;
12660;SDS011;39039;51.802;5.710;2022-08-01T13:51:36;2.50;;;1.08;;
12660;SDS011;39039;51.802;5.710;2022-08-01T13:54:04;1.40;;;0.60;;
12660;SDS011;39039;51.802;5.710;2022-08-01T13:56:32;3.25;;;1.00;;
12660;SDS011;39039;51.802;5.710;2022-08-01T13:58:59;1.67;;;0.70;;
12660;SDS011;39039;51.802;5.710;2022-08-01T14:01:28;1.45;;;1.02;;
12660;SDS011;39039;51.802;5.710;2022-08-01T14:03:55;1.70;;;0.70;;
12660;SDS011;39039;51.802;5.710;2022-08-01T14:06:24;3.78;;;0.98;;
12660;SDS011;39039;51.802;5.710;2022-08-01T14:08:51;1.88;;;0.80;;
12660;SDS011;39039;51.802;5.710;2022-08-01T14:11:18;3.92;;;1.00;;
12660;SDS011;39039;51.802;5.710;2022-08-01T14:13:45;1.98;;;0.90;;
12660;SDS011;39039;51.802;5.710;2022-08-01T14:16:12;2.85;;;1.20;;
12660;SDS011;39039;51.802;5.710;2022-08-01T14:18:39;8.85;;;1.15;;
12660;SDS011;39039;51.802;5.710;2022-08-01T14:21:06;1.38;;;0.60;;
12660;SDS011;39039;51.802;5.710;2022-08-01T14:23:34;1.77;;;0.70;;
12660;SDS011;39039;51.802;5.710;2022-08-01T14:26:01;2.92;;;1.05;;
12660;SDS011;39039;51.802;5.710;2022-08-01T14:28:28;3.42;;;0.70;;
12660;SDS011;39039;51.802;5.710;2022-08-01T14:30:56;3.47;;;0.80;;
12660;SDS011;39039;51.802;5.710;2022-08-01T14:33:23;3.55;;;0.98;;
12660;SDS011;39039;51.802;5.710;2022-08-01T14:35:51;3.83;;;1.15;;
12660;SDS011;39039;51.802;5.710;2022-08-01T14:38:18;1.35;;;0.85;;
12660;SDS011;39039;51.802;5.710;2022-08-01T14:40:46;3.60;;;0.95;;
12660;SDS011;39039;51.802;5.710;2022-08-01T14:43:16;7.15;;;0.90;;
12660;SDS011;39039;51.802;5.710;2022-08-01T14:45:43;4.00;;;0.80;;
12660;SDS011;39039;51.802;5.710;2022-08-01T14:48:10;3.42;;;0.98;;
12660;SDS011;39039;51.802;5.710;2022-08-01T14:50:38;6.50;;;1.10;;
12660;SDS011;39039;51.802;5.710;2022-08-01T14:53:05;0.93;;;0.60;;
12660;SDS011;39039;51.802;5.710;2022-08-01T14:55:32;3.03;;;0.90;;
12660;SDS011;39039;51.802;5.710;2022-08-01T14:58:01;4.07;;;1.10;;
12660;SDS011;39039;51.802;5.710;2022-08-01T15:00:28;4.82;;;1.45;;
12660;SDS011;39039;51.802;5.710;2022-08-01T15:02:55;3.88;;;0.70;;
12660;SDS011;39039;51.802;5.710;2022-08-01T15:05:22;1.50;;;0.55;;